Terminal Aerodrome Forecast
Issued by NWS Upton, NY

Current Version | Previous Version | Text Only | Print | Product List | Glossary On
Versions: 1 2 3 4 5 6 7 8 9 10 11 12 13 14 15 16 17 18 19 20 21 22 23 24 25 26 27 28 29 30 31 32 33
308 FTUS41 KOKX 250806 AAA TAFJFK TAF AMD KJFK 250806Z 2508/2612 05005KT P6SM FEW010 FM251500 07009KT P6SM SKC FM251700 12014KT P6SM SKC FM251900 15014KT P6SM FEW250 FM260000 14008KT P6SM SKC FM260400 VRB03KT P6SM SKC=

USA.gov is the U.S. government's official web portal to all federal, state and local government web resources and services.